Time;durP1;ratioP1;P1;durP2;ratioP2;P2;SDS_P1;SDS_P2;PMS_P1;PMS_P2;Temp;Humidity;BMP_temperature;BMP_pressure;BME280_temperature;BME280_humidity;BME280_pressure;Samples;Min_cycle;Max_cycle;Signal;HPM_P1;HPM_P2
2022/11/23 00:04:19;;;;;;;;;;;;;;;7.12;100.00;99299.94;10414837;28;20058;-70
2022/11/23 00:09:22;;;;;;;12.50;3.10;;;;;;;7.10;100.00;99296.59;10414209;28;20298;-68
2022/11/23 00:14:23;;;;;;;10.32;2.45;;;;;;;7.12;100.00;99299.94;10414114;28;20095;-70
2022/11/23 00:19:25;;;;;;;9.82;2.90;;;;;;;7.12;100.00;99299.94;10411593;28;20118;-69
2022/11/23 00:24:29;;;;;;;8.57;2.35;;;;;;;7.15;100.00;99299.78;10413798;28;20045;-70
2022/11/23 00:29:31;;;;;;;13.50;3.08;;;;;;;7.12;100.00;99305.13;10413586;28;20452;-69
2022/11/23 00:34:33;;;;;;;9.60;3.13;;;;;;;7.11;100.00;99308.66;10413534;28;20078;-68
2022/11/23 00:39:36;;;;;;;3.80;1.90;;;;;;;7.14;100.00;99318.88;10413429;28;20053;-68
2022/11/23 00:44:39;;;;;;;6.70;2.10;;;;;;;7.18;100.00;99322.13;10413247;28;20050;-69
2022/11/23 00:49:41;;;;;;;8.85;2.70;;;;;;;7.14;100.00;99321.47;10411280;28;20049;-69
2022/11/23 00:54:44;;;;;;;5.40;2.08;;;;;;;7.16;100.00;99322.25;10413187;28;20447;-68
2022/11/23 00:59:46;;;;;;;9.93;2.50;;;;;;;7.18;100.00;99314.34;10413001;28;20084;-69
2022/11/23 01:04:49;;;;;;;5.82;2.38;;;;;;;7.21;100.00;99330.63;10415323;28;20119;-69
2022/11/23 01:09:52;;;;;;;10.23;2.60;;;;;;;7.22;100.00;99327.09;10421046;28;20114;-73
2022/11/23 01:14:54;;;;;;;9.05;2.20;;;;;;;7.21;100.00;99328.03;10421211;28;20049;-74
2022/11/23 01:19:55;;;;;;;5.53;2.00;;;;;;;7.20;100.00;99328.94;10418962;28;20091;-72
2022/11/23 01:24:58;;;;;;;6.45;2.00;;;;;;;7.24;100.00;99327.00;10420798;28;20101;-76
2022/11/23 01:30:00;;;;;;;5.35;1.80;;;;;;;7.26;100.00;99334.72;10420556;28;20438;-73
2022/11/23 01:35:02;;;;;;;7.25;2.30;;;;;;;7.25;100.00;99340.84;10420165;28;20075;-74
2022/11/23 01:40:07;;;;;;;9.68;2.35;;;;;;;7.29;100.00;99347.53;10420389;28;20049;-72
2022/11/23 01:45:40;;;;;;;8.00;2.03;;;;;;;7.26;100.00;99347.69;10419955;28;20059;-78
2022/11/23 01:50:44;;;;;;;2.45;1.90;;;;;;;7.22;100.00;99353.03;10389945;28;20053;-75
2022/11/23 01:55:49;;;;;;;8.30;1.85;;;;;;;7.25;100.00;99351.22;10419045;28;20451;-74
2022/11/23 02:00:51;;;;;;;4.88;1.77;;;;;;;7.24;100.00;99352.09;10419628;28;20059;-77
2022/11/23 02:06:00;;;;;;;10.90;2.13;;;;;;;7.24;100.00;99362.50;10419440;28;20067;-75
2022/11/23 02:11:03;;;;;;;7.40;1.95;;;;;;;7.29;100.00;99357.91;10418746;28;20145;-75
2022/11/23 02:16:06;;;;;;;11.60;2.25;;;;;;;7.37;100.00;99360.09;10417715;28;20049;-73
2022/11/23 02:21:07;;;;;;;4.63;1.50;;;;;;;7.37;100.00;99366.13;10417066;28;20045;-76
2022/11/23 02:26:16;;;;;;;8.00;2.17;;;;;;;7.36;100.00;99368.81;10419202;28;20118;-76
2022/11/23 02:31:18;;;;;;;7.95;2.33;;;;;;;7.38;100.00;99367.81;10417983;28;20519;-74
2022/11/23 02:36:36;;;;;;;;;;;;;;;7.39;100.00;99379.84;10418609;28;20123;-78
2022/11/23 02:41:42;;;;;;;6.82;2.30;;;;;;;7.33;100.00;99375.00;10417916;28;19959;-69
2022/11/23 02:46:44;;;;;;;7.10;2.20;;;;;;;7.27;100.00;99373.56;10418281;28;20113;-75
2022/11/23 02:51:46;;;;;;;8.35;2.15;;;;;;;7.25;100.00;99372.78;10415773;28;20099;-74
2022/11/23 02:56:49;;;;;;;5.88;1.98;;;;;;;7.19;100.00;99373.94;10417399;28;20119;-80
2022/11/23 03:01:52;;;;;;;9.90;3.08;;;;;;;7.20;100.00;99375.66;10417452;28;20049;-76
2022/11/23 03:06:54;;;;;;;9.75;2.40;;;;;;;7.20;100.00;99378.25;10416637;28;20110;-75
2022/11/23 03:11:58;;;;;;;8.63;2.38;;;;;;;7.23;100.00;99379.84;10417014;28;20049;-76
2022/11/23 03:17:00;;;;;;;13.65;2.67;;;;;;;7.19;100.00;99376.53;10416486;28;20053;-75
2022/11/23 03:22:02;;;;;;;;;;;;;;;7.15;100.00;99376.81;10415544;28;20060;-74
2022/11/23 03:27:05;;;;;;;11.25;2.35;;;;;;;7.15;100.00;99387.19;10416118;28;19920;-70
2022/11/23 03:32:06;;;;;;;17.42;3.05;;;;;;;7.12;100.00;99380.38;10415786;28;20042;-79
2022/11/23 03:37:08;;;;;;;6.85;2.38;;;;;;;7.12;100.00;99382.97;10415802;28;20057;-77
2022/11/23 03:42:11;;;;;;;9.88;2.50;;;;;;;7.12;100.00;99385.56;10416048;28;20132;-77
2022/11/23 03:47:13;;;;;;;10.15;2.30;;;;;;;7.15;100.00;99382.81;10416125;28;20100;-79
2022/11/23 03:52:14;;;;;;;12.70;2.38;;;;;;;7.18;100.00;99382.66;10413634;28;20049;-76
2022/11/23 03:57:17;;;;;;;16.50;2.65;;;;;;;7.18;100.00;99374.03;10415845;28;20057;-76
2022/11/23 04:02:19;;;;;;;9.45;2.40;;;;;;;7.15;100.00;99377.63;10415704;28;20061;-77
2022/11/23 04:07:21;;;;;;;9.52;2.58;;;;;;;7.14;100.00;99381.13;10415943;28;20053;-72
2022/11/23 04:12:24;;;;;;;7.20;2.13;;;;;;;7.18;100.00;99387.84;10415936;28;20119;-73
2022/11/23 04:17:26;;;;;;;10.27;2.45;;;;;;;7.17;100.00;99390.53;10424653;28;20053;-73
2022/11/23 04:22:28;;;;;;;14.00;2.08;;;;;;;7.18;100.00;99385.25;10421642;28;20045;-76
2022/11/23 04:27:31;;;;;;;8.90;2.60;;;;;;;7.22;100.00;99381.59;10416647;28;20119;-78
2022/11/23 04:32:32;;;;;;;8.95;2.50;;;;;;;7.27;100.00;99377.91;10413935;28;20096;-78
2022/11/23 04:37:34;;;;;;;10.65;1.35;;;;;;;7.26;100.00;99379.69;10414526;28;20495;-77
2022/11/23 04:42:37;;;;;;;5.47;1.75;;;;;;;7.24;100.00;99380.66;10421426;28;20111;-75
2022/11/23 04:47:39;;;;;;;11.52;2.60;;;;;;;7.11;100.00;99380.47;10420710;28;20049;-74
2022/11/23 04:52:40;;;;;;;8.07;2.72;;;;;;;7.04;100.00;99390.31;10417515;28;20077;-78
2022/11/23 04:57:43;;;;;;;14.35;2.80;;;;;;;6.86;100.00;99382.56;10419691;28;20045;-77
2022/11/23 05:02:45;;;;;;;11.52;3.25;;;;;;;6.73;100.00;99381.47;10420200;28;20110;-78
2022/11/23 05:07:47;;;;;;;11.68;2.95;;;;;;;6.66;100.00;99386.97;10419940;28;20049;-72
2022/11/23 05:12:50;;;;;;;9.63;2.60;;;;;;;6.61;100.00;99372.56;10419127;28;20046;-76
2022/11/23 05:17:51;;;;;;;7.10;2.22;;;;;;;6.49;100.00;99380.03;10418725;28;20053;-72
2022/11/23 05:22:53;;;;;;;13.45;3.28;;;;;;;6.49;100.00;99368.81;10416945;28;20049;-70
2022/11/23 05:27:56;;;;;;;15.27;2.30;;;;;;;6.58;100.00;99378.75;10418735;28;20099;-76
2022/11/23 05:33:01;;;;;;;11.95;2.72;;;;;;;6.59;100.00;99380.41;10418170;28;20099;-74
2022/11/23 05:38:05;;;;;;;9.40;2.38;;;;;;;6.54;100.00;99388.41;10418599;28;20152;-73
2022/11/23 05:43:08;;;;;;;12.70;2.60;;;;;;;6.51;100.00;99382.56;10418236;28;20058;-76
2022/11/23 05:48:11;;;;;;;13.27;3.08;;;;;;;6.53;100.00;99380.72;10418228;28;20107;-78
2022/11/23 05:53:12;;;;;;;10.68;2.92;;;;;;;6.50;100.00;99386.88;10415345;28;20111;-75
2022/11/23 05:58:15;;;;;;;11.85;2.58;;;;;;;6.53;100.00;99381.56;10417581;28;20114;-79
2022/11/23 06:03:17;;;;;;;10.90;2.58;;;;;;;6.52;100.00;99386.81;10417558;28;20046;-79
2022/11/23 06:08:20;;;;;;;11.45;2.88;;;;;;;6.49;100.00;99389.53;10417273;28;20049;-78
2022/11/23 06:13:23;;;;;;;18.75;2.83;;;;;;;6.47;100.00;99388.78;10416644;28;20052;-80
2022/11/23 06:18:25;;;;;;;9.23;2.38;;;;;;;6.46;100.00;99400.09;10416057;28;20053;-76
2022/11/23 06:23:26;;;;;;;4.07;2.08;;;;;;;6.49;100.00;99399.91;10414350;28;20578;-78
2022/11/23 06:28:31;;;;;;;14.45;2.85;;;;;;;6.53;100.00;99402.28;10417869;28;20059;-76
2022/11/23 06:33:33;;;;;;;11.65;2.05;;;;;;;6.47;100.00;99404.34;10418543;28;20111;-78
2022/11/23 06:38:36;;;;;;;15.93;2.70;;;;;;;6.47;100.00;99396.56;10419953;28;20068;-76
2022/11/23 06:43:39;;;;;;;8.35;2.45;;;;;;;6.43;100.00;99396.72;10417181;28;20050;-75
2022/11/23 06:48:43;;;;;;;11.98;2.83;;;;;;;6.52;100.00;99400.63;10416660;28;20060;-75
2022/11/23 06:53:45;;;;;;;11.02;2.42;;;;;;;6.46;100.00;99408.69;10414654;28;20500;-77
2022/11/23 06:58:49;;;;;;;15.18;2.47;;;;;;;6.34;100.00;99417.91;10417231;28;20053;-76
2022/11/23 07:03:51;;;;;;;16.52;3.03;;;;;;;6.34;100.00;99423.09;10416828;28;20049;-77
2022/11/23 07:08:56;;;;;;;15.13;2.53;;;;;;;6.30;100.00;99426.72;10416832;28;20118;-76
2022/11/23 07:13:59;;;;;;;15.95;2.70;;;;;;;6.27;100.00;99437.25;10416664;28;20111;-73
2022/11/23 07:19:02;;;;;;;7.43;2.38;;;;;;;6.25;100.00;99444.22;10416590;28;20058;-75
2022/11/23 07:24:04;;;;;;;8.85;2.25;;;;;;;6.13;100.00;99446.47;10414727;28;20118;-74
2022/11/23 07:29:08;;;;;;;9.45;2.38;;;;;;;6.09;100.00;99454.47;10415947;28;20062;-75
2022/11/23 07:34:10;;;;;;;9.95;2.30;;;;;;;6.08;100.00;99461.41;10415618;28;20429;-77
2022/11/23 07:39:13;;;;;;;8.20;1.83;;;;;;;6.00;100.00;99464.31;10415991;28;20073;-75
2022/11/23 07:44:16;;;;;;;5.30;1.77;;;;;;;6.15;100.00;99473.16;10415203;28;20142;-77
2022/11/23 07:49:19;;;;;;;11.27;2.47;;;;;;;6.19;100.00;99476.44;10406968;28;20106;-74
2022/11/23 07:54:21;;;;;;;15.00;2.35;;;;;;;6.11;100.00;99483.72;10414505;28;20107;-73
2022/11/23 07:59:25;;;;;;;7.57;2.10;;;;;;;6.01;100.00;99493.63;10413994;28;20505;-67
2022/11/23 08:04:28;;;;;;;16.52;2.00;;;;;;;6.00;100.00;99486.78;10413655;28;20125;-69
2022/11/23 08:09:31;;;;;;;8.80;1.88;;;;;;;6.16;100.00;99495.56;10413756;28;20137;-69
2022/11/23 08:14:34;;;;;;;8.55;2.20;;;;;;;6.12;100.00;99486.25;10413204;28;20081;-69
2022/11/23 08:19:37;;;;;;;6.88;1.13;;;;;;;6.18;100.00;99491.16;10409585;28;20585;-73
2022/11/23 08:24:39;;;;;;;6.18;1.35;;;;;;;6.24;100.00;99486.59;10412966;28;20050;-70
2022/11/23 08:29:43;;;;;;;8.52;1.73;;;;;;;6.32;100.00;99492.25;10413270;28;20128;-69
2022/11/23 08:34:44;;;;;;;9.80;2.30;;;;;;;6.36;100.00;99488.63;10384904;28;20104;-69
2022/11/23 08:39:47;;;;;;;7.55;1.73;;;;;;;6.40;100.00;99495.34;10391681;28;20112;-69
2022/11/23 08:44:50;;;;;;;6.10;2.08;;;;;;;6.54;100.00;99504.22;10413510;28;20551;-70
2022/11/23 08:49:53;;;;;;;9.50;2.25;;;;;;;6.66;100.00;99506.25;10410871;28;20103;-67
2022/11/23 08:54:55;;;;;;;2.53;1.20;;;;;;;6.64;100.00;99504.63;10413260;28;20085;-68
2022/11/23 08:59:58;;;;;;;3.10;1.70;;;;;;;6.79;100.00;99505.66;10412939;28;20064;-71
2022/11/23 09:04:59;;;;;;;8.63;2.47;;;;;;;6.86;100.00;99496.66;10413334;28;20049;-70
2022/11/23 09:10:02;;;;;;;4.32;1.73;;;;;;;6.93;100.00;99492.00;10413432;28;20463;-65
2022/11/23 09:15:07;;;;;;;20.45;2.30;;;;;;;6.98;100.00;99479.63;10412720;28;20084;-67
2022/11/23 09:20:10;;;;;;;4.47;2.10;;;;;;;6.98;100.00;99486.59;10410359;28;20049;-65
2022/11/23 09:25:12;;;;;;;3.38;1.52;;;;;;;7.04;100.00;99486.28;10414447;28;20056;-69
2022/11/23 09:30:17;;;;;;;10.27;2.50;;;;;;;7.51;100.00;99476.19;10420311;28;20049;-64
2022/11/23 09:35:18;;;;;;;10.88;2.30;;;;;;;7.68;100.00;99463.16;10419982;28;20045;-66
2022/11/23 09:40:20;;;;;;;11.05;2.90;;;;;;;8.30;100.00;99460.78;10419877;28;20056;-64
2022/11/23 09:45:33;;;;;;;10.93;2.22;;;;;;;7.94;100.00;99460.94;10419928;28;20046;-65
2022/11/23 09:50:47;;;;;;;3.95;1.77;;;;;;;8.28;100.00;99449.66;10417746;28;20467;-67
2022/11/23 09:55:54;;;;;;;5.72;1.80;;;;;;;8.38;98.20;99440.38;10418910;28;20519;-66
2022/11/23 10:01:04;;;;;;;6.15;2.22;;;;;;;8.27;98.59;99437.53;10419261;28;20049;-65
2022/11/23 10:06:19;;;;;;;11.93;2.10;;;;;;;8.66;96.82;99428.50;10419114;28;20050;-64
2022/11/23 10:11:49;;;;;;;3.30;1.60;;;;;;;8.72;97.62;99427.28;10419205;28;20129;-65
2022/11/23 10:17:02;;;;;;;5.65;1.90;;;;;;;9.05;95.21;99415.00;10418467;28;20045;-67
2022/11/23 10:22:17;;;;;;;6.43;1.65;;;;;;;9.14;94.66;99409.25;10416390;28;20057;-64
2022/11/23 10:27:24;;;;;;;5.07;1.98;;;;;;;9.28;93.61;99409.25;10418074;28;20053;-67
2022/11/23 10:32:38;;;;;;;8.30;2.10;;;;;;;9.25;93.13;99401.66;10418281;28;20087;-65
2022/11/23 10:37:40;;;;;;;7.43;1.83;;;;;;;9.35;94.83;99404.53;10416737;28;20131;-65
2022/11/23 10:42:49;;;;;;;3.90;1.67;;;;;;;9.66;93.09;99409.63;10417905;28;20104;-63
2022/11/23 10:47:57;;;;;;;6.18;2.00;;;;;;;9.19;91.36;99386.41;10417493;28;20509;-65
2022/11/23 10:53:19;;;;;;;4.35;1.30;;;;;;;9.92;92.12;99400.19;10415244;28;20049;-66
2022/11/23 10:58:26;;;;;;;;;;;;;;;9.49;92.81;99398.50;10417479;28;20103;-68
2022/11/23 11:03:34;;;;;;;4.50;2.05;;;;;;;9.45;95.55;99384.00;10416138;28;19928;-64
2022/11/23 11:08:50;;;;;;;4.28;1.83;;;;;;;9.55;93.93;99378.22;10414497;28;20083;-64
2022/11/23 11:14:00;;;;;;;7.07;1.75;;;;;;;9.76;90.77;99379.47;10414368;28;20092;-67
2022/11/23 11:19:27;;;;;;;5.35;2.03;;;;;;;9.07;93.72;99374.13;10413685;28;20848;-64
2022/11/23 11:24:35;;;;;;;4.47;1.63;;;;;;;8.68;95.95;99366.81;10412608;28;20073;-69
2022/11/23 11:29:48;;;;;;;4.88;1.77;;;;;;;8.84;94.68;99358.09;10412187;28;20057;-64
2022/11/23 11:34:58;;;;;;;5.95;1.63;;;;;;;8.98;95.17;99345.13;10412124;28;20041;-65
2022/11/23 11:40:09;;;;;;;6.72;1.20;;;;;;;9.18;92.92;99340.47;10413582;28;20123;-64
2022/11/23 11:45:20;;;;;;;3.47;1.48;;;;;;;9.52;91.18;99333.19;10413223;28;20053;-65
2022/11/23 11:50:28;;;;;;;4.45;1.40;;;;;;;10.16;88.69;99325.72;10410235;28;20487;-63
2022/11/23 11:55:46;;;;;;;5.30;1.25;;;;;;;10.45;85.44;99312.59;10412722;28;20049;-67
2022/11/23 12:00:56;;;;;;;5.32;1.70;;;;;;;10.88;84.75;99310.66;10412678;28;20061;-66
2022/11/23 12:06:11;;;;;;;3.17;1.40;;;;;;;10.59;85.73;99297.78;10412855;28;20551;-66
2022/11/23 12:11:13;;;;;;;3.20;1.60;;;;;;;10.24;83.75;99296.56;10412101;28;20181;-67
2022/11/23 12:16:28;;;;;;;4.32;1.27;;;;;;;10.38;84.40;99295.66;10412162;28;20477;-68
2022/11/23 12:22:14;;;;;;;0.47;0.47;;;;;;;10.00;85.26;99290.25;10409762;28;20255;-65
2022/11/23 12:27:35;;;;;;;4.90;1.35;;;;;;;9.87;85.48;99290.22;10404610;28;20087;-68
2022/11/23 12:32:58;;;;;;;2.75;1.48;;;;;;;9.62;87.70;99283.13;10411979;28;20488;-65
2022/11/23 12:38:20;;;;;;;2.70;0.88;;;;;;;9.56;88.47;99275.69;10411560;28;20068;-67
2022/11/23 12:43:27;;;;;;;;;;;;;;;9.74;87.60;99269.31;10412658;28;20489;-64
2022/11/23 12:48:59;;;;;;;8.52;1.60;;;;;;;9.77;87.04;99273.50;10410294;28;19921;-65
2022/11/23 12:54:25;;;;;;;3.00;1.25;;;;;;;9.81;87.85;99284.56;10404703;28;20079;-64
2022/11/23 12:59:44;;;;;;;3.70;1.50;;;;;;;9.55;86.59;99258.41;10411533;28;20069;-63
2022/11/23 13:05:27;;;;;;;3.85;1.13;;;;;;;9.52;87.39;99265.47;10418003;28;20481;-64
2022/11/23 13:10:39;;;;;;;;;;;;;;;9.55;86.79;99268.81;10419882;28;20059;-64
2022/11/23 13:16:03;;;;;;;4.70;1.05;;;;;;;9.55;87.83;99264.47;10419125;28;19933;-64
2022/11/23 13:21:22;;;;;;;5.88;1.33;;;;;;;9.44;87.60;99272.94;10416483;28;20060;-64
2022/11/23 13:26:28;;;;;;;5.43;1.73;;;;;;;9.44;87.06;99283.34;10418719;28;20221;-64
2022/11/23 13:31:32;;;;;;;1.15;0.98;;;;;;;9.52;87.78;99281.09;10418752;28;20072;-64
2022/11/23 13:36:42;;;;;;;4.90;1.50;;;;;;;9.49;88.75;99289.13;10418246;28;20482;-65
2022/11/23 13:42:00;;;;;;;7.57;1.50;;;;;;;9.48;89.05;99300.44;10418069;28;20080;-65
2022/11/23 13:47:07;;;;;;;4.25;1.50;;;;;;;9.28;90.16;99297.31;10417877;28;20136;-64
2022/11/23 13:52:30;;;;;;;2.30;1.20;;;;;;;8.81;99.59;99306.25;10413963;28;20049;-66
2022/11/23 13:57:33;;;;;;;3.33;1.70;;;;;;;8.19;100.00;99328.84;10408708;28;20053;-68
2022/11/23 14:02:35;;;;;;;6.22;1.52;;;;;;;7.73;100.00;99326.13;10418561;28;20061;-68
2022/11/23 14:07:45;;;;;;;7.43;1.58;;;;;;;7.56;100.00;99344.41;10417893;28;20053;-71
2022/11/23 14:12:56;;;;;;;2.83;1.38;;;;;;;7.40;100.00;99349.56;10415667;28;20381;-72
2022/11/23 14:18:37;;;;;;;7.65;1.52;;;;;;;7.30;100.00;99344.00;10416914;28;20435;-70
2022/11/23 14:24:27;;;;;;;2.33;1.50;;;;;;;7.17;100.00;99360.22;10414427;28;20056;-70
2022/11/23 14:30:02;;;;;;;2.10;1.20;;;;;;;7.00;100.00;99362.84;10416788;28;20058;-69
2022/11/23 14:35:22;;;;;;;3.33;1.38;;;;;;;6.93;100.00;99372.69;10416892;28;20049;-69
2022/11/23 14:40:29;;;;;;;2.35;0.98;;;;;;;6.85;100.00;99383.47;10415720;28;20455;-69
2022/11/23 14:45:34;;;;;;;5.22;1.83;;;;;;;6.87;100.00;99393.78;10415565;28;20171;-69
2022/11/23 14:50:36;;;;;;;1.38;1.30;;;;;;;6.83;100.00;99403.44;10413141;28;20057;-73
2022/11/23 14:55:38;;;;;;;3.78;1.65;;;;;;;6.80;100.00;99409.63;10415586;28;20083;-68
2022/11/23 15:00:43;;;;;;;1.15;1.02;;;;;;;6.84;100.00;99410.31;10414735;28;20057;-70
2022/11/23 15:05:52;;;;;;;2.58;1.50;;;;;;;6.78;100.00;99421.00;10414828;28;20045;-71
2022/11/23 15:11:04;;;;;;;3.75;1.70;;;;;;;6.77;100.00;99419.31;10414615;28;20183;-70
2022/11/23 15:16:13;;;;;;;2.05;1.60;;;;;;;6.76;100.00;99417.63;10414552;28;20045;-70
2022/11/23 15:21:20;;;;;;;1.60;1.50;;;;;;;6.75;100.00;99421.16;10411854;28;20493;-71
2022/11/23 15:26:26;;;;;;;6.93;1.58;;;;;;;6.70;100.00;99401.47;10413461;28;20796;-68
2022/11/23 15:31:34;;;;;;;3.58;1.10;;;;;;;6.72;100.00;99395.38;10413717;28;20450;-69
2022/11/23 15:36:39;;;;;;;2.13;1.55;;;;;;;6.72;100.00;99403.13;10413882;28;20407;-69
2022/11/23 15:41:41;;;;;;;8.52;1.90;;;;;;;6.69;100.00;99422.28;10413434;28;20106;-71
2022/11/23 15:46:47;;;;;;;2.45;1.38;;;;;;;6.68;100.00;99377.34;10413439;28;20060;-70
2022/11/23 15:51:51;;;;;;;2.10;1.45;;;;;;;6.63;100.00;99387.13;10411270;28;20050;-71
2022/11/23 15:56:57;;;;;;;1.13;1.13;;;;;;;6.65;100.00;99431.13;10411588;28;20061;-69
2022/11/23 16:02:05;;;;;;;5.78;1.17;;;;;;;6.64;100.00;99451.00;10411401;28;20080;-68
2022/11/23 16:07:18;;;;;;;2.63;1.73;;;;;;;6.60;100.00;99435.72;10411091;28;20113;-70
2022/11/23 16:12:32;;;;;;;4.28;1.90;;;;;;;6.59;100.00;99447.81;10411292;28;20513;-70
2022/11/23 16:17:35;;;;;;;1.67;1.25;;;;;;;6.60;100.00;99479.78;10410701;28;20136;-70
2022/11/23 16:22:47;;;;;;;6.18;2.10;;;;;;;6.59;100.00;99494.47;10408812;28;20057;-70
2022/11/23 16:27:58;;;;;;;2.83;1.52;;;;;;;6.65;100.00;99501.97;10410481;28;20095;-71
2022/11/23 16:33:02;;;;;;;3.85;1.90;;;;;;;6.65;100.00;99521.88;10410345;28;20444;-71
2022/11/23 16:38:05;;;;;;;2.38;1.92;;;;;;;6.64;100.00;99515.81;10409459;28;20398;-70
2022/11/23 16:43:08;;;;;;;2.70;1.85;;;;;;;6.66;100.00;99526.97;10410660;28;20049;-69
2022/11/23 16:48:38;;;;;;;2.10;1.70;;;;;;;6.67;100.00;99546.81;10410786;28;20054;-69
2022/11/23 16:53:43;;;;;;;3.00;1.60;;;;;;;6.67;100.00;99539.03;10407954;28;20545;-69
2022/11/23 16:58:45;;;;;;;2.88;1.92;;;;;;;6.69;100.00;99547.59;10409896;28;20095;-71
2022/11/23 17:03:49;;;;;;;3.83;1.63;;;;;;;6.74;100.00;99549.94;10409753;28;20041;-69
2022/11/23 17:08:54;;;;;;;1.95;1.40;;;;;;;6.77;100.00;99564.53;10410082;28;20059;-69
2022/11/23 17:13:56;;;;;;;3.22;2.22;;;;;;;6.75;100.00;99569.78;10409756;28;20138;-69
2022/11/23 17:19:01;;;;;;;2.17;1.60;;;;;;;6.69;100.00;99562.28;10409454;28;20053;-72
2022/11/23 17:24:03;;;;;;;3.17;2.13;;;;;;;6.65;100.00;99584.09;10407195;28;20049;-67
2022/11/23 17:29:13;;;;;;;2.80;2.25;;;;;;;6.69;100.00;99591.66;10409855;28;20046;-73
2022/11/23 17:34:16;;;;;;;5.22;2.38;;;;;;;6.71;100.00;99601.97;10409119;28;20512;-70
2022/11/23 17:39:22;;;;;;;2.78;2.38;;;;;;;6.76;100.00;99606.91;10408925;28;20064;-72
2022/11/23 17:44:24;;;;;;;2.15;2.00;;;;;;;6.65;100.00;99600.50;10408749;28;20050;-69
2022/11/23 17:49:27;;;;;;;3.20;2.88;;;;;;;6.62;100.00;99613.59;10413218;28;20064;-70
2022/11/23 17:54:29;;;;;;;9.40;2.85;;;;;;;6.60;100.00;99622.34;10416468;28;20083;-72
2022/11/23 17:59:32;;;;;;;6.57;3.20;;;;;;;6.49;100.00;99628.00;10416230;28;20093;-71
2022/11/23 18:04:36;;;;;;;7.20;2.75;;;;;;;6.52;100.00;99646.00;10415774;28;20379;-71
2022/11/23 18:09:37;;;;;;;4.57;3.28;;;;;;;6.55;100.00;99645.88;10415870;28;20127;-72
2022/11/23 18:14:41;;;;;;;4.20;2.65;;;;;;;6.42;100.00;99659.38;10416117;28;20049;-72
2022/11/23 18:19:45;;;;;;;1.77;1.67;;;;;;;6.49;100.00;99669.47;10413297;28;20172;-74
2022/11/23 18:24:47;;;;;;;7.53;3.13;;;;;;;6.40;100.00;99671.56;10415895;28;20049;-72
2022/11/23 18:29:49;;;;;;;7.85;3.35;;;;;;;6.29;100.00;99689.31;10415853;28;20096;-72
2022/11/23 18:34:52;;;;;;;5.53;3.05;;;;;;;6.22;100.00;99682.75;10416072;28;20079;-71
2022/11/23 18:39:54;;;;;;;7.75;4.32;;;;;;;6.12;100.00;99690.06;10415246;28;20071;-70
2022/11/23 18:44:55;;;;;;;11.90;4.63;;;;;;;5.97;100.00;99701.88;10414217;28;20489;-69
2022/11/23 18:50:00;;;;;;;5.00;3.58;;;;;;;5.87;100.00;99702.25;10411876;28;20311;-69
2022/11/23 18:55:01;;;;;;;5.75;3.60;;;;;;;5.91;100.00;99701.22;10413837;28;20080;-70
2022/11/23 19:00:09;;;;;;;9.60;3.72;;;;;;;5.91;100.00;99706.41;10408861;28;20064;-71
2022/11/23 19:05:12;;;;;;;6.65;4.03;;;;;;;5.85;100.00;99729.13;10411441;28;20067;-71
2022/11/23 19:10:15;;;;;;;4.85;3.33;;;;;;;5.79;100.00;99740.56;10413286;28;20063;-70
2022/11/23 19:15:17;;;;;;;5.82;3.15;;;;;;;5.90;100.00;99730.63;10406275;28;20041;-71
2022/11/23 19:20:22;;;;;;;11.15;3.08;;;;;;;5.90;100.00;99750.47;10410209;28;20080;-69
2022/11/23 19:25:24;;;;;;;12.00;4.85;;;;;;;5.92;100.00;99754.69;10412775;28;20122;-69
2022/11/23 19:30:26;;;;;;;7.70;3.90;;;;;;;6.02;100.00;99755.16;10413049;28;20053;-71
2022/11/23 19:35:29;;;;;;;12.63;4.55;;;;;;;6.16;100.00;99775.34;10412038;28;20764;-68
2022/11/23 19:40:31;;;;;;;9.80;4.25;;;;;;;6.22;100.00;99771.66;10411983;28;20423;-69
2022/11/23 19:45:33;;;;;;;6.28;3.90;;;;;;;6.27;100.00;99766.28;10407537;28;20099;-70
2022/11/23 19:50:36;;;;;;;8.52;3.40;;;;;;;6.25;100.00;99774.13;10403368;28;20056;-73
2022/11/23 19:55:38;;;;;;;13.25;5.15;;;;;;;6.18;100.00;99783.91;10411348;28;20045;-69
2022/11/23 20:00:44;;;;;;;6.13;3.08;;;;;;;6.22;100.00;99791.56;10411064;28;20076;-69
2022/11/23 20:05:56;;;;;;;10.73;3.42;;;;;;;6.35;100.00;99802.25;10409348;28;20059;-69
2022/11/23 20:10:58;;;;;;;14.25;3.63;;;;;;;6.34;100.00;99792.78;10406108;28;20045;-70
2022/11/23 20:16:02;;;;;;;12.25;4.05;;;;;;;6.42;100.00;99794.16;10411056;28;20075;-69
2022/11/23 20:21:11;;;;;;;13.95;3.75;;;;;;;6.37;100.00;99806.44;10409003;28;20053;-70
2022/11/23 20:26:18;;;;;;;12.98;3.67;;;;;;;6.34;100.00;99811.78;10410813;28;20404;-71
2022/11/23 20:31:22;;;;;;;10.50;3.53;;;;;;;6.36;100.00;99822.09;10410459;28;20062;-71
2022/11/23 20:36:28;;;;;;;11.82;3.70;;;;;;;6.28;100.00;99820.66;10410775;28;20053;-70
2022/11/23 20:41:33;;;;;;;9.85;2.88;;;;;;;6.41;100.00;99825.31;10411072;28;20072;-71
2022/11/23 20:46:34;;;;;;;12.82;4.40;;;;;;;6.55;100.00;99830.78;10410773;28;20046;-72
2022/11/23 20:51:37;;;;;;;12.80;3.83;;;;;;;6.56;100.00;99841.97;10408015;28;20077;-72
2022/11/23 20:56:39;;;;;;;5.68;2.30;;;;;;;6.59;100.00;99844.44;10410784;28;20057;-73
2022/11/23 21:01:41;;;;;;;11.38;3.38;;;;;;;6.43;100.00;99852.00;10410345;28;20408;-70
2022/11/23 21:06:45;;;;;;;12.48;3.75;;;;;;;6.46;100.00;99856.25;10410236;28;20112;-69
2022/11/23 21:17:06;;;;;;;13.32;4.15;;;;;;;6.58;100.00;99858.31;10409757;28;20042;-73
2022/11/23 21:22:12;;;;;;;7.22;3.10;;;;;;;6.54;100.00;99860.19;10410417;28;20064;-75
2022/11/23 21:27:13;;;;;;;9.55;3.10;;;;;;;6.68;100.00;99858.78;10417865;28;20110;-71
2022/11/23 21:32:15;;;;;;;17.95;3.85;;;;;;;6.63;100.00;99873.66;10417955;28;20064;-73
2022/11/23 21:37:18;;;;;;;9.18;3.35;;;;;;;6.69;100.00;99874.28;10418208;28;20080;-71
2022/11/23 21:42:20;;;;;;;12.55;3.42;;;;;;;6.67;100.00;99886.44;10418148;28;20083;-74
2022/11/23 21:47:23;;;;;;;16.05;4.03;;;;;;;6.74;100.00;99886.19;10418439;28;20104;-70
2022/11/23 21:52:27;;;;;;;7.72;3.08;;;;;;;6.77;100.00;99906.84;10415425;28;20049;-70
2022/11/23 21:57:28;;;;;;;13.90;3.38;;;;;;;6.88;100.00;99909.78;10417392;28;20456;-70
2022/11/23 22:02:30;;;;;;;17.65;3.83;;;;;;;6.94;100.00;99914.72;10417753;28;20050;-72
2022/11/23 22:07:34;;;;;;;20.10;3.38;;;;;;;6.99;100.00;99921.47;10417160;28;20045;-76
2022/11/23 22:12:36;;;;;;;13.93;3.05;;;;;;;6.94;100.00;99935.47;10416836;28;20045;-72
2022/11/23 22:17:38;;;;;;;12.48;3.92;;;;;;;6.93;100.00;99939.00;10417086;28;20166;-69
2022/11/23 22:22:41;;;;;;;14.70;3.53;;;;;;;6.95;100.00;99934.56;10414815;28;20067;-71
2022/11/23 22:27:44;;;;;;;9.63;2.58;;;;;;;6.91;100.00;99942.56;10416651;28;20137;-70
2022/11/23 22:32:47;;;;;;;10.98;3.20;;;;;;;6.89;100.00;99949.56;10415264;28;20045;-71
2022/11/23 22:37:50;;;;;;;14.90;3.45;;;;;;;7.00;100.00;99962.06;10416693;28;20076;-72
2022/11/23 22:42:52;;;;;;;19.00;4.28;;;;;;;6.93;100.00;99954.56;10416379;28;20049;-72
2022/11/23 22:47:54;;;;;;;17.45;3.58;;;;;;;6.99;100.00;99965.56;10416161;28;20091;-72
2022/11/23 22:52:58;;;;;;;10.80;2.80;;;;;;;6.98;100.00;99966.50;10413355;28;20050;-70
2022/11/23 22:58:00;;;;;;;17.88;3.35;;;;;;;6.95;100.00;99973.47;10415490;28;20055;-71
2022/11/23 23:03:02;;;;;;;13.35;3.33;;;;;;;6.94;100.00;99979.59;10415288;28;20063;-73
2022/11/23 23:08:07;;;;;;;11.57;2.90;;;;;;;6.98;100.00;99997.63;10415763;28;20500;-76
2022/11/23 23:13:09;;;;;;;20.92;3.38;;;;;;;6.91;100.00;100000.44;10414689;28;20057;-69
2022/11/23 23:18:15;;;;;;;20.17;3.42;;;;;;;7.00;100.00;99995.78;10414342;28;20051;-70
2022/11/23 23:23:19;;;;;;;16.85;3.05;;;;;;;6.93;100.00;100001.25;10411826;28;20099;-70
2022/11/23 23:28:21;;;;;;;5.43;1.80;;;;;;;6.99;100.00;99994.97;10414733;28;20484;-73
2022/11/23 23:33:23;;;;;;;6.93;3.05;;;;;;;6.89;100.00;99998.84;10414065;28;20515;-71
2022/11/23 23:38:27;;;;;;;11.75;2.75;;;;;;;6.73;100.00;100003.78;10413442;28;20409;-72
2022/11/23 23:43:30;;;;;;;16.08;2.60;;;;;;;6.72;100.00;100018.50;10413564;28;20049;-74
2022/11/23 23:48:35;;;;;;;14.55;3.35;;;;;;;6.74;100.00;100008.91;10413801;28;20056;-71